sensor_id;sensor_type;location;lat;lon;timestamp;P1;durP1;ratioP1;P2;durP2;ratioP2
2388;SDS011;1205;47.984;7.668;2023-07-02T00:02:23;5.13;;;2.40;;
2388;SDS011;1205;47.984;7.668;2023-07-02T00:04:49;2.70;;;2.60;;
2388;SDS011;1205;47.984;7.668;2023-07-02T00:07:15;3.47;;;2.30;;
2388;SDS011;1205;47.984;7.668;2023-07-02T00:09:40;2.33;;;2.00;;
2388;SDS011;1205;47.984;7.668;2023-07-02T00:12:06;3.20;;;2.90;;
2388;SDS011;1205;47.984;7.668;2023-07-02T00:14:32;3.90;;;2.50;;
2388;SDS011;1205;47.984;7.668;2023-07-02T00:16:58;2.03;;;1.93;;
2388;SDS011;1205;47.984;7.668;2023-07-02T00:19:24;2.90;;;2.70;;
2388;SDS011;1205;47.984;7.668;2023-07-02T00:21:50;2.70;;;2.60;;
2388;SDS011;1205;47.984;7.668;2023-07-02T00:24:15;2.60;;;2.50;;
2388;SDS011;1205;47.984;7.668;2023-07-02T00:26:41;4.10;;;2.20;;
2388;SDS011;1205;47.984;7.668;2023-07-02T00:29:07;4.83;;;2.30;;
2388;SDS011;1205;47.984;7.668;2023-07-02T00:31:34;2.30;;;2.20;;
2388;SDS011;1205;47.984;7.668;2023-07-02T00:34:00;3.73;;;2.20;;
2388;SDS011;1205;47.984;7.668;2023-07-02T00:36:27;2.33;;;2.20;;
2388;SDS011;1205;47.984;7.668;2023-07-02T00:38:53;6.00;;;2.27;;
2388;SDS011;1205;47.984;7.668;2023-07-02T00:41:19;2.90;;;2.70;;
2388;SDS011;1205;47.984;7.668;2023-07-02T00:43:45;2.63;;;2.43;;
2388;SDS011;1205;47.984;7.668;2023-07-02T00:48:48;4.23;;;2.87;;
2388;SDS011;1205;47.984;7.668;2023-07-02T00:51:19;2.87;;;2.60;;
2388;SDS011;1205;47.984;7.668;2023-07-02T00:53:47;2.80;;;2.57;;
2388;SDS011;1205;47.984;7.668;2023-07-02T00:56:14;3.20;;;2.90;;
2388;SDS011;1205;47.984;7.668;2023-07-02T00:58:41;2.60;;;2.50;;
2388;SDS011;1205;47.984;7.668;2023-07-02T01:01:16;5.70;;;2.60;;
2388;SDS011;1205;47.984;7.668;2023-07-02T01:03:50;2.70;;;2.50;;
2388;SDS011;1205;47.984;7.668;2023-07-02T01:06:45;3.73;;;2.50;;
2388;SDS011;1205;47.984;7.668;2023-07-02T01:09:10;3.00;;;2.80;;
2388;SDS011;1205;47.984;7.668;2023-07-02T01:14:37;2.73;;;2.60;;
2388;SDS011;1205;47.984;7.668;2023-07-02T01:17:05;5.70;;;3.00;;
2388;SDS011;1205;47.984;7.668;2023-07-02T01:22:11;3.10;;;2.67;;
2388;SDS011;1205;47.984;7.668;2023-07-02T01:24:40;2.77;;;2.67;;
2388;SDS011;1205;47.984;7.668;2023-07-02T01:27:06;2.60;;;2.40;;
2388;SDS011;1205;47.984;7.668;2023-07-02T01:29:32;2.87;;;2.67;;
2388;SDS011;1205;47.984;7.668;2023-07-02T01:32:01;3.07;;;2.77;;
2388;SDS011;1205;47.984;7.668;2023-07-02T01:34:27;4.10;;;2.80;;
2388;SDS011;1205;47.984;7.668;2023-07-02T01:36:53;2.67;;;2.53;;
2388;SDS011;1205;47.984;7.668;2023-07-02T01:39:18;3.13;;;2.90;;
2388;SDS011;1205;47.984;7.668;2023-07-02T01:41:44;2.97;;;2.77;;
2388;SDS011;1205;47.984;7.668;2023-07-02T01:44:15;2.73;;;2.63;;
2388;SDS011;1205;47.984;7.668;2023-07-02T01:46:41;3.27;;;3.07;;
2388;SDS011;1205;47.984;7.668;2023-07-02T01:49:07;7.00;;;3.00;;
2388;SDS011;1205;47.984;7.668;2023-07-02T01:51:33;3.03;;;2.70;;
2388;SDS011;1205;47.984;7.668;2023-07-02T01:53:59;3.87;;;3.10;;
2388;SDS011;1205;47.984;7.668;2023-07-02T01:56:25;2.50;;;2.27;;
2388;SDS011;1205;47.984;7.668;2023-07-02T01:58:52;2.77;;;2.57;;
2388;SDS011;1205;47.984;7.668;2023-07-02T02:01:18;6.10;;;2.70;;
2388;SDS011;1205;47.984;7.668;2023-07-02T02:03:44;4.53;;;3.47;;
2388;SDS011;1205;47.984;7.668;2023-07-02T02:06:09;3.10;;;2.90;;
2388;SDS011;1205;47.984;7.668;2023-07-02T02:08:35;12.93;;;2.50;;
2388;SDS011;1205;47.984;7.668;2023-07-02T02:11:00;4.03;;;3.00;;
2388;SDS011;1205;47.984;7.668;2023-07-02T02:13:26;3.23;;;3.03;;
2388;SDS011;1205;47.984;7.668;2023-07-02T02:15:52;3.33;;;3.00;;
2388;SDS011;1205;47.984;7.668;2023-07-02T02:18:18;4.60;;;3.40;;
2388;SDS011;1205;47.984;7.668;2023-07-02T02:20:44;5.53;;;3.37;;
2388;SDS011;1205;47.984;7.668;2023-07-02T02:23:10;3.53;;;3.23;;
2388;SDS011;1205;47.984;7.668;2023-07-02T02:25:36;3.47;;;3.17;;
2388;SDS011;1205;47.984;7.668;2023-07-02T02:28:01;4.30;;;2.97;;
2388;SDS011;1205;47.984;7.668;2023-07-02T02:30:27;3.33;;;3.03;;
2388;SDS011;1205;47.984;7.668;2023-07-02T02:32:52;3.43;;;3.13;;
2388;SDS011;1205;47.984;7.668;2023-07-02T02:35:18;9.30;;;3.13;;
2388;SDS011;1205;47.984;7.668;2023-07-02T02:37:44;10.93;;;3.10;;
2388;SDS011;1205;47.984;7.668;2023-07-02T02:40:09;3.63;;;2.87;;
2388;SDS011;1205;47.984;7.668;2023-07-02T02:42:36;3.30;;;3.00;;
2388;SDS011;1205;47.984;7.668;2023-07-02T02:45:03;3.53;;;3.23;;
2388;SDS011;1205;47.984;7.668;2023-07-02T02:47:29;3.90;;;3.10;;
2388;SDS011;1205;47.984;7.668;2023-07-02T02:49:55;3.50;;;3.20;;
2388;SDS011;1205;47.984;7.668;2023-07-02T02:52:20;2.90;;;2.70;;
2388;SDS011;1205;47.984;7.668;2023-07-02T02:54:46;4.13;;;3.20;;
2388;SDS011;1205;47.984;7.668;2023-07-02T02:57:11;4.07;;;3.03;;
2388;SDS011;1205;47.984;7.668;2023-07-02T02:59:38;3.50;;;3.30;;
2388;SDS011;1205;47.984;7.668;2023-07-02T03:02:04;7.43;;;3.80;;
2388;SDS011;1205;47.984;7.668;2023-07-02T03:04:29;8.80;;;4.03;;
2388;SDS011;1205;47.984;7.668;2023-07-02T03:06:55;8.00;;;3.83;;
2388;SDS011;1205;47.984;7.668;2023-07-02T03:09:21;7.97;;;3.97;;
2388;SDS011;1205;47.984;7.668;2023-07-02T03:11:47;5.37;;;4.50;;
2388;SDS011;1205;47.984;7.668;2023-07-02T03:14:13;4.87;;;4.10;;
2388;SDS011;1205;47.984;7.668;2023-07-02T03:16:40;6.23;;;3.73;;
2388;SDS011;1205;47.984;7.668;2023-07-02T03:19:07;8.00;;;4.03;;
2388;SDS011;1205;47.984;7.668;2023-07-02T03:21:32;8.20;;;4.20;;
2388;SDS011;1205;47.984;7.668;2023-07-02T03:23:58;5.47;;;4.17;;
2388;SDS011;1205;47.984;7.668;2023-07-02T03:26:23;8.37;;;4.57;;
2388;SDS011;1205;47.984;7.668;2023-07-02T03:28:49;10.93;;;4.50;;
2388;SDS011;1205;47.984;7.668;2023-07-02T03:31:15;3.90;;;3.50;;
2388;SDS011;1205;47.984;7.668;2023-07-02T03:33:40;7.20;;;4.40;;
2388;SDS011;1205;47.984;7.668;2023-07-02T03:36:06;5.00;;;4.50;;
2388;SDS011;1205;47.984;7.668;2023-07-02T03:38:32;4.53;;;4.13;;
2388;SDS011;1205;47.984;7.668;2023-07-02T03:40:57;7.10;;;4.07;;
2388;SDS011;1205;47.984;7.668;2023-07-02T03:43:23;9.37;;;4.00;;
2388;SDS011;1205;47.984;7.668;2023-07-02T03:45:51;10.03;;;4.47;;
2388;SDS011;1205;47.984;7.668;2023-07-02T03:48:17;6.13;;;4.20;;
2388;SDS011;1205;47.984;7.668;2023-07-02T03:50:42;6.47;;;4.27;;
2388;SDS011;1205;47.984;7.668;2023-07-02T03:53:08;11.30;;;4.10;;
2388;SDS011;1205;47.984;7.668;2023-07-02T03:55:33;12.50;;;4.60;;
2388;SDS011;1205;47.984;7.668;2023-07-02T03:57:59;5.70;;;4.57;;
2388;SDS011;1205;47.984;7.668;2023-07-02T04:00:24;15.43;;;5.27;;
2388;SDS011;1205;47.984;7.668;2023-07-02T04:02:50;9.10;;;5.90;;
2388;SDS011;1205;47.984;7.668;2023-07-02T04:05:15;10.17;;;6.10;;
2388;SDS011;1205;47.984;7.668;2023-07-02T04:07:41;8.70;;;5.90;;
2388;SDS011;1205;47.984;7.668;2023-07-02T04:10:07;10.30;;;7.03;;
2388;SDS011;1205;47.984;7.668;2023-07-02T04:12:33;8.90;;;6.60;;
2388;SDS011;1205;47.984;7.668;2023-07-02T04:14:58;10.10;;;6.57;;
2388;SDS011;1205;47.984;7.668;2023-07-02T04:17:24;10.97;;;7.33;;
2388;SDS011;1205;47.984;7.668;2023-07-02T04:19:49;12.33;;;9.77;;
2388;SDS011;1205;47.984;7.668;2023-07-02T04:22:18;16.10;;;9.90;;
2388;SDS011;1205;47.984;7.668;2023-07-02T04:24:44;22.60;;;10.33;;
2388;SDS011;1205;47.984;7.668;2023-07-02T04:27:10;13.67;;;10.10;;
2388;SDS011;1205;47.984;7.668;2023-07-02T04:29:36;22.97;;;10.10;;
2388;SDS011;1205;47.984;7.668;2023-07-02T04:32:01;28.57;;;12.07;;
2388;SDS011;1205;47.984;7.668;2023-07-02T04:34:27;29.93;;;12.20;;
2388;SDS011;1205;47.984;7.668;2023-07-02T04:36:53;26.70;;;11.60;;
2388;SDS011;1205;47.984;7.668;2023-07-02T04:39:18;24.23;;;12.57;;
2388;SDS011;1205;47.984;7.668;2023-07-02T04:41:44;20.50;;;12.40;;
2388;SDS011;1205;47.984;7.668;2023-07-02T04:44:09;28.87;;;13.10;;
2388;SDS011;1205;47.984;7.668;2023-07-02T04:46:35;25.70;;;13.17;;
2388;SDS011;1205;47.984;7.668;2023-07-02T04:49:01;21.20;;;12.20;;
2388;SDS011;1205;47.984;7.668;2023-07-02T04:51:26;21.17;;;12.70;;
2388;SDS011;1205;47.984;7.668;2023-07-02T04:53:52;24.00;;;11.70;;
2388;SDS011;1205;47.984;7.668;2023-07-02T04:56:17;22.90;;;12.03;;
2388;SDS011;1205;47.984;7.668;2023-07-02T04:58:43;22.57;;;13.17;;
2388;SDS011;1205;47.984;7.668;2023-07-02T05:01:09;22.20;;;12.70;;
2388;SDS011;1205;47.984;7.668;2023-07-02T05:03:34;21.40;;;13.53;;
2388;SDS011;1205;47.984;7.668;2023-07-02T05:06:00;20.87;;;13.13;;
2388;SDS011;1205;47.984;7.668;2023-07-02T05:08:25;27.23;;;15.30;;
2388;SDS011;1205;47.984;7.668;2023-07-02T05:10:51;20.10;;;12.43;;
2388;SDS011;1205;47.984;7.668;2023-07-02T05:13:16;21.50;;;13.17;;
2388;SDS011;1205;47.984;7.668;2023-07-02T05:15:42;24.10;;;13.67;;
2388;SDS011;1205;47.984;7.668;2023-07-02T05:18:07;21.27;;;13.30;;
2388;SDS011;1205;47.984;7.668;2023-07-02T05:20:33;25.57;;;13.97;;
2388;SDS011;1205;47.984;7.668;2023-07-02T05:22:58;21.60;;;13.03;;
2388;SDS011;1205;47.984;7.668;2023-07-02T05:25:24;24.20;;;13.50;;
2388;SDS011;1205;47.984;7.668;2023-07-02T05:27:50;19.90;;;14.30;;
2388;SDS011;1205;47.984;7.668;2023-07-02T05:30:15;25.17;;;14.30;;
2388;SDS011;1205;47.984;7.668;2023-07-02T05:32:41;25.70;;;14.80;;
2388;SDS011;1205;47.984;7.668;2023-07-02T05:35:07;24.20;;;15.20;;
2388;SDS011;1205;47.984;7.668;2023-07-02T05:37:33;26.63;;;15.00;;
2388;SDS011;1205;47.984;7.668;2023-07-02T05:39:58;26.00;;;14.27;;
2388;SDS011;1205;47.984;7.668;2023-07-02T05:42:24;32.87;;;15.37;;
2388;SDS011;1205;47.984;7.668;2023-07-02T05:44:49;29.10;;;15.57;;
2388;SDS011;1205;47.984;7.668;2023-07-02T05:47:15;23.60;;;13.83;;
2388;SDS011;1205;47.984;7.668;2023-07-02T05:49:41;33.90;;;15.30;;
2388;SDS011;1205;47.984;7.668;2023-07-02T05:52:07;32.07;;;17.27;;
2388;SDS011;1205;47.984;7.668;2023-07-02T05:54:33;27.00;;;14.10;;
2388;SDS011;1205;47.984;7.668;2023-07-02T05:56:59;26.10;;;14.50;;
2388;SDS011;1205;47.984;7.668;2023-07-02T05:59:24;30.20;;;16.97;;
2388;SDS011;1205;47.984;7.668;2023-07-02T06:01:50;34.87;;;19.13;;
2388;SDS011;1205;47.984;7.668;2023-07-02T06:04:15;31.43;;;16.97;;
2388;SDS011;1205;47.984;7.668;2023-07-02T06:06:41;32.30;;;17.50;;
2388;SDS011;1205;47.984;7.668;2023-07-02T06:09:06;29.07;;;16.47;;
2388;SDS011;1205;47.984;7.668;2023-07-02T06:11:32;44.27;;;18.07;;
2388;SDS011;1205;47.984;7.668;2023-07-02T06:13:58;31.90;;;18.07;;
2388;SDS011;1205;47.984;7.668;2023-07-02T06:16:23;29.87;;;17.00;;
2388;SDS011;1205;47.984;7.668;2023-07-02T06:18:49;32.63;;;17.37;;
2388;SDS011;1205;47.984;7.668;2023-07-02T06:21:15;29.90;;;17.83;;
2388;SDS011;1205;47.984;7.668;2023-07-02T06:23:44;32.00;;;17.70;;
2388;SDS011;1205;47.984;7.668;2023-07-02T06:26:10;36.30;;;19.63;;
2388;SDS011;1205;47.984;7.668;2023-07-02T06:28:36;35.70;;;18.53;;
2388;SDS011;1205;47.984;7.668;2023-07-02T06:31:01;37.53;;;18.23;;
2388;SDS011;1205;47.984;7.668;2023-07-02T06:33:27;31.43;;;18.00;;
2388;SDS011;1205;47.984;7.668;2023-07-02T06:35:53;34.83;;;19.30;;
2388;SDS011;1205;47.984;7.668;2023-07-02T06:38:18;34.10;;;19.17;;
2388;SDS011;1205;47.984;7.668;2023-07-02T06:40:44;34.13;;;18.70;;
2388;SDS011;1205;47.984;7.668;2023-07-02T06:43:09;30.03;;;17.30;;
2388;SDS011;1205;47.984;7.668;2023-07-02T06:45:35;35.63;;;18.90;;
2388;SDS011;1205;47.984;7.668;2023-07-02T06:48:00;33.40;;;19.30;;
2388;SDS011;1205;47.984;7.668;2023-07-02T06:50:26;42.73;;;18.63;;
2388;SDS011;1205;47.984;7.668;2023-07-02T06:52:52;28.97;;;18.40;;
2388;SDS011;1205;47.984;7.668;2023-07-02T06:55:17;34.83;;;18.17;;
2388;SDS011;1205;47.984;7.668;2023-07-02T06:57:43;33.33;;;18.77;;
2388;SDS011;1205;47.984;7.668;2023-07-02T07:00:10;34.50;;;19.10;;
2388;SDS011;1205;47.984;7.668;2023-07-02T07:02:37;49.37;;;18.80;;
2388;SDS011;1205;47.984;7.668;2023-07-02T07:05:02;33.40;;;19.30;;
2388;SDS011;1205;47.984;7.668;2023-07-02T07:07:29;36.80;;;19.80;;
2388;SDS011;1205;47.984;7.668;2023-07-02T07:09:54;43.13;;;18.07;;
2388;SDS011;1205;47.984;7.668;2023-07-02T07:12:20;39.47;;;19.47;;
2388;SDS011;1205;47.984;7.668;2023-07-02T07:14:46;38.47;;;19.37;;
2388;SDS011;1205;47.984;7.668;2023-07-02T07:17:11;32.23;;;18.77;;
2388;SDS011;1205;47.984;7.668;2023-07-02T07:19:37;28.00;;;17.70;;
2388;SDS011;1205;47.984;7.668;2023-07-02T07:22:02;41.23;;;20.43;;
2388;SDS011;1205;47.984;7.668;2023-07-02T07:24:28;28.37;;;19.67;;
2388;SDS011;1205;47.984;7.668;2023-07-02T07:26:54;37.27;;;20.53;;
2388;SDS011;1205;47.984;7.668;2023-07-02T07:29:19;40.27;;;21.50;;
2388;SDS011;1205;47.984;7.668;2023-07-02T07:31:45;39.93;;;21.57;;
2388;SDS011;1205;47.984;7.668;2023-07-02T07:34:11;35.33;;;20.23;;
2388;SDS011;1205;47.984;7.668;2023-07-02T07:36:37;35.77;;;21.13;;
2388;SDS011;1205;47.984;7.668;2023-07-02T07:39:02;34.20;;;21.90;;
2388;SDS011;1205;47.984;7.668;2023-07-02T07:41:28;37.07;;;21.50;;
2388;SDS011;1205;47.984;7.668;2023-07-02T07:43:53;32.83;;;20.53;;
2388;SDS011;1205;47.984;7.668;2023-07-02T07:46:19;35.10;;;22.50;;
2388;SDS011;1205;47.984;7.668;2023-07-02T07:48:45;32.67;;;20.60;;
2388;SDS011;1205;47.984;7.668;2023-07-02T07:51:10;40.90;;;22.57;;
2388;SDS011;1205;47.984;7.668;2023-07-02T07:53:38;38.80;;;21.67;;
2388;SDS011;1205;47.984;7.668;2023-07-02T07:56:04;38.57;;;20.60;;
2388;SDS011;1205;47.984;7.668;2023-07-02T07:58:30;35.80;;;23.33;;
2388;SDS011;1205;47.984;7.668;2023-07-02T08:00:57;34.33;;;22.00;;
2388;SDS011;1205;47.984;7.668;2023-07-02T08:03:22;39.77;;;22.80;;
2388;SDS011;1205;47.984;7.668;2023-07-02T08:05:48;31.03;;;20.63;;
2388;SDS011;1205;47.984;7.668;2023-07-02T08:08:14;37.53;;;22.90;;
2388;SDS011;1205;47.984;7.668;2023-07-02T08:10:39;36.43;;;22.97;;
2388;SDS011;1205;47.984;7.668;2023-07-02T08:13:05;38.23;;;23.20;;
2388;SDS011;1205;47.984;7.668;2023-07-02T08:15:31;38.27;;;23.00;;
2388;SDS011;1205;47.984;7.668;2023-07-02T08:17:56;37.10;;;23.17;;
2388;SDS011;1205;47.984;7.668;2023-07-02T08:20:23;35.87;;;23.90;;
2388;SDS011;1205;47.984;7.668;2023-07-02T08:22:49;38.40;;;22.60;;
2388;SDS011;1205;47.984;7.668;2023-07-02T08:25:16;41.30;;;23.80;;
2388;SDS011;1205;47.984;7.668;2023-07-02T08:27:43;37.73;;;23.27;;
2388;SDS011;1205;47.984;7.668;2023-07-02T08:30:08;41.63;;;23.70;;
2388;SDS011;1205;47.984;7.668;2023-07-02T08:32:35;35.70;;;22.93;;
2388;SDS011;1205;47.984;7.668;2023-07-02T08:35:00;37.50;;;24.57;;
2388;SDS011;1205;47.984;7.668;2023-07-02T08:37:26;35.50;;;21.67;;
2388;SDS011;1205;47.984;7.668;2023-07-02T08:39:52;32.53;;;22.37;;
2388;SDS011;1205;47.984;7.668;2023-07-02T08:42:17;41.47;;;24.30;;
2388;SDS011;1205;47.984;7.668;2023-07-02T08:44:46;36.47;;;23.33;;
2388;SDS011;1205;47.984;7.668;2023-07-02T08:47:12;37.17;;;22.77;;
2388;SDS011;1205;47.984;7.668;2023-07-02T08:49:38;38.33;;;23.10;;
2388;SDS011;1205;47.984;7.668;2023-07-02T08:52:04;40.37;;;23.67;;
2388;SDS011;1205;47.984;7.668;2023-07-02T08:54:30;40.13;;;25.83;;
2388;SDS011;1205;47.984;7.668;2023-07-02T08:56:56;34.87;;;22.27;;
2388;SDS011;1205;47.984;7.668;2023-07-02T08:59:22;39.50;;;25.33;;
2388;SDS011;1205;47.984;7.668;2023-07-02T09:01:48;36.70;;;22.87;;
2388;SDS011;1205;47.984;7.668;2023-07-02T09:04:19;34.87;;;21.73;;
2388;SDS011;1205;47.984;7.668;2023-07-02T09:06:46;37.93;;;24.63;;
2388;SDS011;1205;47.984;7.668;2023-07-02T09:09:13;38.50;;;23.20;;
2388;SDS011;1205;47.984;7.668;2023-07-02T09:11:48;34.50;;;22.83;;
2388;SDS011;1205;47.984;7.668;2023-07-02T09:14:30;33.23;;;22.80;;
2388;SDS011;1205;47.984;7.668;2023-07-02T09:19:31;38.63;;;23.13;;
2388;SDS011;1205;47.984;7.668;2023-07-02T09:21:58;44.30;;;25.07;;
2388;SDS011;1205;47.984;7.668;2023-07-02T09:24:25;34.27;;;24.63;;
2388;SDS011;1205;47.984;7.668;2023-07-02T09:26:52;36.50;;;23.67;;
2388;SDS011;1205;47.984;7.668;2023-07-02T09:31:49;35.80;;;23.60;;
2388;SDS011;1205;47.984;7.668;2023-07-02T09:34:15;42.03;;;24.43;;
2388;SDS011;1205;47.984;7.668;2023-07-02T09:36:41;42.00;;;24.90;;
2388;SDS011;1205;47.984;7.668;2023-07-02T09:39:52;34.30;;;22.63;;
2388;SDS011;1205;47.984;7.668;2023-07-02T09:41:57;32.17;;;23.00;;
2388;SDS011;1205;47.984;7.668;2023-07-02T09:44:30;34.60;;;22.90;;
2388;SDS011;1205;47.984;7.668;2023-07-02T09:47:03;39.60;;;23.70;;
2388;SDS011;1205;47.984;7.668;2023-07-02T09:49:33;37.27;;;24.70;;
2388;SDS011;1205;47.984;7.668;2023-07-02T09:52:00;38.00;;;24.40;;
2388;SDS011;1205;47.984;7.668;2023-07-02T09:54:28;44.53;;;24.80;;
2388;SDS011;1205;47.984;7.668;2023-07-02T09:56:55;38.80;;;23.33;;
2388;SDS011;1205;47.984;7.668;2023-07-02T09:59:21;36.40;;;22.93;;
2388;SDS011;1205;47.984;7.668;2023-07-02T10:01:47;38.93;;;24.40;;
2388;SDS011;1205;47.984;7.668;2023-07-02T10:04:16;38.53;;;23.37;;
2388;SDS011;1205;47.984;7.668;2023-07-02T10:06:47;36.10;;;23.20;;
2388;SDS011;1205;47.984;7.668;2023-07-02T10:09:13;38.30;;;24.03;;
2388;SDS011;1205;47.984;7.668;2023-07-02T10:11:40;37.40;;;24.83;;
2388;SDS011;1205;47.984;7.668;2023-07-02T10:14:05;39.97;;;23.93;;
2388;SDS011;1205;47.984;7.668;2023-07-02T10:16:31;42.47;;;23.73;;
2388;SDS011;1205;47.984;7.668;2023-07-02T10:19:12;39.40;;;24.17;;
2388;SDS011;1205;47.984;7.668;2023-07-02T10:21:37;36.77;;;23.60;;
2388;SDS011;1205;47.984;7.668;2023-07-02T10:24:13;43.10;;;23.50;;
2388;SDS011;1205;47.984;7.668;2023-07-02T10:26:53;40.00;;;24.70;;
2388;SDS011;1205;47.984;7.668;2023-07-02T10:29:24;40.93;;;25.00;;
2388;SDS011;1205;47.984;7.668;2023-07-02T10:31:52;35.27;;;23.30;;
2388;SDS011;1205;47.984;7.668;2023-07-02T10:34:32;40.33;;;23.37;;
2388;SDS011;1205;47.984;7.668;2023-07-02T10:37:02;36.40;;;21.50;;
2388;SDS011;1205;47.984;7.668;2023-07-02T10:39:28;42.37;;;22.50;;
2388;SDS011;1205;47.984;7.668;2023-07-02T10:42:05;35.90;;;22.10;;
2388;SDS011;1205;47.984;7.668;2023-07-02T10:44:35;37.47;;;22.83;;
2388;SDS011;1205;47.984;7.668;2023-07-02T10:47:13;42.27;;;23.70;;
2388;SDS011;1205;47.984;7.668;2023-07-02T10:49:38;38.10;;;22.00;;
2388;SDS011;1205;47.984;7.668;2023-07-02T10:52:04;32.83;;;21.40;;
2388;SDS011;1205;47.984;7.668;2023-07-02T10:57:06;32.00;;;20.70;;
2388;SDS011;1205;47.984;7.668;2023-07-02T10:59:32;38.60;;;22.53;;
2388;SDS011;1205;47.984;7.668;2023-07-02T11:01:58;31.90;;;20.63;;
2388;SDS011;1205;47.984;7.668;2023-07-02T11:04:28;35.67;;;20.17;;
2388;SDS011;1205;47.984;7.668;2023-07-02T11:06:58;32.13;;;19.17;;
2388;SDS011;1205;47.984;7.668;2023-07-02T11:09:24;33.90;;;21.87;;
2388;SDS011;1205;47.984;7.668;2023-07-02T11:11:51;28.20;;;19.13;;
2388;SDS011;1205;47.984;7.668;2023-07-02T11:16:55;38.10;;;21.00;;
2388;SDS011;1205;47.984;7.668;2023-07-02T11:19:21;32.33;;;20.40;;
2388;SDS011;1205;47.984;7.668;2023-07-02T11:21:54;27.50;;;18.73;;
2388;SDS011;1205;47.984;7.668;2023-07-02T11:24:31;32.83;;;20.67;;
2388;SDS011;1205;47.984;7.668;2023-07-02T11:27:07;29.37;;;18.80;;
2388;SDS011;1205;47.984;7.668;2023-07-02T11:29:33;30.73;;;19.60;;
2388;SDS011;1205;47.984;7.668;2023-07-02T11:32:10;32.80;;;19.17;;
2388;SDS011;1205;47.984;7.668;2023-07-02T11:34:36;30.57;;;19.60;;
2388;SDS011;1205;47.984;7.668;2023-07-02T11:37:05;36.03;;;19.27;;
2388;SDS011;1205;47.984;7.668;2023-07-02T11:39:31;29.03;;;20.20;;
2388;SDS011;1205;47.984;7.668;2023-07-02T11:41:57;38.60;;;20.13;;
2388;SDS011;1205;47.984;7.668;2023-07-02T11:44:23;32.23;;;19.80;;
2388;SDS011;1205;47.984;7.668;2023-07-02T11:46:49;29.20;;;19.13;;
2388;SDS011;1205;47.984;7.668;2023-07-02T11:49:15;31.90;;;19.20;;
2388;SDS011;1205;47.984;7.668;2023-07-02T11:51:41;31.17;;;18.43;;
2388;SDS011;1205;47.984;7.668;2023-07-02T11:54:13;31.70;;;19.90;;
2388;SDS011;1205;47.984;7.668;2023-07-02T11:56:38;28.73;;;17.50;;
2388;SDS011;1205;47.984;7.668;2023-07-02T11:59:06;33.00;;;19.47;;
2388;SDS011;1205;47.984;7.668;2023-07-02T12:01:32;31.87;;;18.40;;
2388;SDS011;1205;47.984;7.668;2023-07-02T12:03:58;29.37;;;19.40;;
2388;SDS011;1205;47.984;7.668;2023-07-02T12:06:23;31.27;;;19.53;;
2388;SDS011;1205;47.984;7.668;2023-07-02T12:08:49;29.53;;;18.83;;
2388;SDS011;1205;47.984;7.668;2023-07-02T12:11:15;27.03;;;17.90;;
2388;SDS011;1205;47.984;7.668;2023-07-02T12:13:40;29.57;;;18.87;;
2388;SDS011;1205;47.984;7.668;2023-07-02T12:16:06;25.57;;;16.63;;
2388;SDS011;1205;47.984;7.668;2023-07-02T12:18:32;27.60;;;18.13;;
2388;SDS011;1205;47.984;7.668;2023-07-02T12:20:57;26.30;;;16.53;;
2388;SDS011;1205;47.984;7.668;2023-07-02T12:23:23;24.50;;;16.60;;
2388;SDS011;1205;47.984;7.668;2023-07-02T12:25:48;30.90;;;17.20;;
2388;SDS011;1205;47.984;7.668;2023-07-02T12:28:14;25.63;;;16.73;;
2388;SDS011;1205;47.984;7.668;2023-07-02T12:30:40;24.43;;;16.70;;
2388;SDS011;1205;47.984;7.668;2023-07-02T12:33:05;23.10;;;14.57;;
2388;SDS011;1205;47.984;7.668;2023-07-02T12:35:31;24.60;;;14.47;;
2388;SDS011;1205;47.984;7.668;2023-07-02T12:37:56;28.03;;;15.53;;
2388;SDS011;1205;47.984;7.668;2023-07-02T12:40:22;26.23;;;14.70;;
2388;SDS011;1205;47.984;7.668;2023-07-02T12:42:48;23.33;;;15.60;;
2388;SDS011;1205;47.984;7.668;2023-07-02T12:45:15;20.93;;;14.50;;
2388;SDS011;1205;47.984;7.668;2023-07-02T12:47:41;23.87;;;16.40;;
2388;SDS011;1205;47.984;7.668;2023-07-02T12:50:07;23.07;;;14.97;;
2388;SDS011;1205;47.984;7.668;2023-07-02T12:52:33;23.70;;;16.20;;
2388;SDS011;1205;47.984;7.668;2023-07-02T12:54:59;21.87;;;15.40;;
2388;SDS011;1205;47.984;7.668;2023-07-02T12:57:25;22.00;;;16.50;;
2388;SDS011;1205;47.984;7.668;2023-07-02T12:59:52;21.50;;;16.10;;
2388;SDS011;1205;47.984;7.668;2023-07-02T13:02:18;27.10;;;17.80;;
2388;SDS011;1205;47.984;7.668;2023-07-02T13:04:43;22.57;;;16.87;;
2388;SDS011;1205;47.984;7.668;2023-07-02T13:07:09;23.93;;;16.37;;
2388;SDS011;1205;47.984;7.668;2023-07-02T13:09:34;31.30;;;18.63;;
2388;SDS011;1205;47.984;7.668;2023-07-02T13:12:00;27.20;;;19.00;;
2388;SDS011;1205;47.984;7.668;2023-07-02T13:14:26;29.00;;;18.27;;
2388;SDS011;1205;47.984;7.668;2023-07-02T13:16:51;32.10;;;21.53;;
2388;SDS011;1205;47.984;7.668;2023-07-02T13:19:17;25.67;;;18.57;;
2388;SDS011;1205;47.984;7.668;2023-07-02T13:21:42;26.13;;;16.90;;
2388;SDS011;1205;47.984;7.668;2023-07-02T13:24:08;27.37;;;18.17;;
2388;SDS011;1205;47.984;7.668;2023-07-02T13:26:36;26.97;;;18.67;;
2388;SDS011;1205;47.984;7.668;2023-07-02T13:29:01;28.93;;;19.17;;
2388;SDS011;1205;47.984;7.668;2023-07-02T13:31:27;28.00;;;18.40;;
2388;SDS011;1205;47.984;7.668;2023-07-02T13:33:53;26.93;;;18.60;;
2388;SDS011;1205;47.984;7.668;2023-07-02T13:36:18;28.03;;;18.73;;
2388;SDS011;1205;47.984;7.668;2023-07-02T13:38:44;36.50;;;19.93;;
2388;SDS011;1205;47.984;7.668;2023-07-02T13:41:09;31.50;;;20.87;;
2388;SDS011;1205;47.984;7.668;2023-07-02T13:43:35;29.70;;;19.70;;
2388;SDS011;1205;47.984;7.668;2023-07-02T13:46:01;30.20;;;20.37;;
2388;SDS011;1205;47.984;7.668;2023-07-02T13:48:28;25.63;;;17.60;;
2388;SDS011;1205;47.984;7.668;2023-07-02T13:50:53;25.43;;;17.00;;
2388;SDS011;1205;47.984;7.668;2023-07-02T13:53:19;34.33;;;18.03;;
2388;SDS011;1205;47.984;7.668;2023-07-02T13:55:45;27.60;;;17.90;;
2388;SDS011;1205;47.984;7.668;2023-07-02T13:58:10;23.80;;;17.53;;
2388;SDS011;1205;47.984;7.668;2023-07-02T14:00:36;24.70;;;16.73;;
2388;SDS011;1205;47.984;7.668;2023-07-02T14:03:01;26.07;;;17.70;;
2388;SDS011;1205;47.984;7.668;2023-07-02T14:05:27;32.13;;;16.50;;
2388;SDS011;1205;47.984;7.668;2023-07-02T14:07:53;23.93;;;16.17;;
2388;SDS011;1205;47.984;7.668;2023-07-02T14:10:19;24.20;;;15.70;;
2388;SDS011;1205;47.984;7.668;2023-07-02T14:12:44;26.23;;;17.03;;
2388;SDS011;1205;47.984;7.668;2023-07-02T14:15:10;25.60;;;17.17;;
2388;SDS011;1205;47.984;7.668;2023-07-02T14:17:36;26.23;;;16.23;;
2388;SDS011;1205;47.984;7.668;2023-07-02T14:20:02;29.13;;;16.40;;
2388;SDS011;1205;47.984;7.668;2023-07-02T14:22:29;28.53;;;16.30;;
2388;SDS011;1205;47.984;7.668;2023-07-02T14:24:54;24.03;;;16.00;;
2388;SDS011;1205;47.984;7.668;2023-07-02T14:27:20;23.27;;;16.40;;
2388;SDS011;1205;47.984;7.668;2023-07-02T14:29:46;21.17;;;15.13;;
2388;SDS011;1205;47.984;7.668;2023-07-02T14:32:14;25.13;;;15.27;;
2388;SDS011;1205;47.984;7.668;2023-07-02T14:34:40;23.03;;;14.37;;
2388;SDS011;1205;47.984;7.668;2023-07-02T14:37:06;22.20;;;15.50;;
2388;SDS011;1205;47.984;7.668;2023-07-02T14:39:32;20.87;;;16.07;;
2388;SDS011;1205;47.984;7.668;2023-07-02T14:41:57;25.27;;;15.70;;
2388;SDS011;1205;47.984;7.668;2023-07-02T14:44:23;21.23;;;15.07;;
2388;SDS011;1205;47.984;7.668;2023-07-02T14:46:49;23.77;;;16.00;;
2388;SDS011;1205;47.984;7.668;2023-07-02T14:49:15;25.70;;;16.77;;
2388;SDS011;1205;47.984;7.668;2023-07-02T14:51:41;22.87;;;15.07;;
2388;SDS011;1205;47.984;7.668;2023-07-02T14:54:07;22.00;;;15.80;;
2388;SDS011;1205;47.984;7.668;2023-07-02T14:56:33;23.00;;;15.77;;
2388;SDS011;1205;47.984;7.668;2023-07-02T14:59:01;24.20;;;14.93;;
2388;SDS011;1205;47.984;7.668;2023-07-02T15:01:27;20.80;;;14.20;;
2388;SDS011;1205;47.984;7.668;2023-07-02T15:03:53;23.37;;;15.27;;
2388;SDS011;1205;47.984;7.668;2023-07-02T15:06:19;20.20;;;14.53;;
2388;SDS011;1205;47.984;7.668;2023-07-02T15:08:45;19.13;;;12.90;;
2388;SDS011;1205;47.984;7.668;2023-07-02T15:11:11;19.30;;;13.30;;